createdAt,value
2019-05-29T00:01:21.972Z,79.29
2019-05-29T00:03:51.578Z,79.08
2019-05-29T00:06:22.184Z,79.09
2019-05-29T00:08:51.597Z,79.35
2019-05-29T00:11:21.959Z,79.27
2019-05-29T00:13:52.567Z,79.20
2019-05-29T00:16:22.954Z,79.21
2019-05-29T00:18:58.181Z,79.16
2019-05-29T00:21:26.328Z,79.15
2019-05-29T00:23:57.112Z,79.11
2019-05-29T00:26:26.932Z,78.92
2019-05-29T00:28:55.399Z,78.82
2019-05-29T00:31:27.633Z,78.92
2019-05-29T00:33:57.104Z,78.59
2019-05-29T00:36:26.576Z,78.64
2019-05-29T00:38:56.035Z,78.58
2019-05-29T00:41:28.094Z,78.48
2019-05-29T00:43:56.546Z,78.38
2019-05-29T00:46:25.996Z,78.52
2019-05-29T00:48:56.464Z,78.21
2019-05-29T00:51:27.083Z,78.03
2019-05-29T00:53:57.902Z,78.25
2019-05-29T00:56:27.791Z,78.62
2019-05-29T00:58:56.588Z,78.26
2019-05-29T01:01:27.360Z,78.32
2019-05-29T01:03:56.712Z,78.08
2019-05-29T01:06:26.072Z,77.80
2019-05-29T01:08:55.488Z,77.75
2019-05-29T01:11:27.294Z,77.53
2019-05-29T01:13:57.699Z,77.37
2019-05-29T01:16:28.461Z,77.53
2019-05-29T01:19:00.599Z,78.09
2019-05-29T01:21:32.677Z,78.07
2019-05-29T01:24:03.118Z,77.89
2019-05-29T01:26:32.588Z,77.96
2019-05-29T01:29:03.242Z,78.67
2019-05-29T01:31:34.315Z,78.40
2019-05-29T01:34:04.810Z,78.58
2019-05-29T01:36:35.221Z,78.50
2019-05-29T01:39:07.090Z,77.64
2019-05-29T01:41:38.951Z,77.45
2019-05-29T01:44:08.104Z,77.36
2019-05-29T01:46:37.503Z,77.73
2019-05-29T01:49:10.167Z,77.82
2019-05-29T01:51:42.029Z,77.86
2019-05-29T01:54:12.547Z,77.69
2019-05-29T01:56:42.436Z,77.67
2019-05-29T01:59:12.042Z,77.65
2019-05-29T02:01:42.509Z,77.46
2019-05-29T02:04:13.033Z,77.76
2019-05-29T02:06:44.897Z,77.86
2019-05-29T02:09:17.985Z,77.94
2019-05-29T02:11:47.416Z,77.18
2019-05-29T02:14:18.514Z,77.21
2019-05-29T02:16:48.941Z,77.38
2019-05-29T02:19:19.853Z,77.82
2019-05-29T02:21:50.454Z,77.94
2019-05-29T02:24:21.190Z,77.94
2019-05-29T02:26:51.507Z,77.47
2019-05-29T02:29:20.857Z,77.06
2019-05-29T02:31:50.756Z,76.93
2019-05-29T02:34:22.657Z,76.98
2019-05-29T02:36:56.719Z,76.73
2019-05-29T02:39:29.413Z,77.15
2019-05-29T02:42:00.436Z,76.90
2019-05-29T02:44:30.197Z,76.90
2019-05-29T02:47:01.221Z,76.88
2019-05-29T02:49:30.698Z,76.71
2019-05-29T02:52:00.608Z,76.72
2019-05-29T02:54:32.512Z,76.99
2019-05-29T02:57:01.892Z,76.97
2019-05-29T02:59:32.083Z,76.95
2019-05-29T03:02:02.896Z,77.17
2019-05-29T03:04:33.003Z,77.30
2019-05-29T03:07:04.245Z,77.20
2019-05-29T03:09:34.751Z,77.60
2019-05-29T03:12:04.263Z,77.78
2019-05-29T03:14:35.004Z,77.85
2019-05-29T03:17:05.395Z,77.77
2019-05-29T03:19:35.028Z,77.79
2019-05-29T03:22:06.978Z,77.51
2019-05-29T03:24:36.499Z,77.61
2019-05-29T03:27:09.458Z,77.03
2019-05-29T03:29:38.930Z,76.52
2019-05-29T03:32:14.012Z,75.96
2019-05-29T03:34:47.023Z,75.75
2019-05-29T03:37:13.173Z,75.45
2019-05-29T03:39:43.557Z,75.51
2019-05-29T03:42:14.502Z,75.57
2019-05-29T03:44:45.658Z,75.61
2019-05-29T03:47:16.255Z,75.45
2019-05-29T03:49:46.174Z,75.25
2019-05-29T03:52:16.367Z,74.85
2019-05-29T03:54:46.845Z,74.28
2019-05-29T03:57:16.455Z,74.44
2019-05-29T03:59:45.814Z,74.44
2019-05-29T04:02:17.773Z,74.35
2019-05-29T04:04:50.763Z,73.90
2019-05-29T04:07:20.270Z,73.62
2019-05-29T04:09:49.733Z,73.58
2019-05-29T04:12:20.519Z,73.64
2019-05-29T04:14:49.997Z,73.96
2019-05-29T04:17:21.328Z,73.05
2019-05-29T04:19:50.630Z,73.08
2019-05-29T04:22:28.329Z,72.94
2019-05-29T04:25:00.273Z,72.86
2019-05-29T04:27:32.146Z,72.66
2019-05-29T04:30:04.118Z,72.18
2019-05-29T04:32:36.608Z,72.24
2019-05-29T04:35:07.051Z,72.34
2019-05-29T04:37:39.687Z,72.36
2019-05-29T04:40:12.431Z,71.70
2019-05-29T04:42:43.251Z,70.86
2019-05-29T04:45:14.175Z,70.60
2019-05-29T04:47:44.890Z,69.84
2019-05-29T04:50:15.402Z,69.33
2019-05-29T04:52:45.812Z,69.76
2019-05-29T04:55:15.215Z,69.76
2019-05-29T04:57:45.577Z,69.04
2019-05-29T05:00:16.505Z,68.48
2019-05-29T05:02:47.222Z,68.18
2019-05-29T05:05:19.623Z,67.93
2019-05-29T05:07:51.015Z,67.29
2019-05-29T05:10:37.645Z,66.23
2019-05-29T05:13:09.020Z,65.94
2019-05-29T05:15:40.354Z,64.76
2019-05-29T05:18:10.751Z,64.35
2019-05-29T05:20:41.078Z,62.62
2019-05-29T05:23:10.354Z,61.58
2019-05-29T05:25:41.132Z,60.79
2019-05-29T05:28:10.649Z,60.08
2019-05-29T05:30:40.840Z,60.00
2019-05-29T05:33:14.754Z,60.18
2019-05-29T05:35:42.656Z,59.84
2019-05-29T05:38:13.208Z,57.40
2019-05-29T05:40:43.268Z,55.97
2019-05-29T05:43:23.519Z,54.99
2019-05-29T05:45:45.019Z,54.35
2019-05-29T05:48:15.443Z,55.02
2019-05-29T05:50:45.815Z,53.51
2019-05-29T05:53:16.398Z,53.12
2019-05-29T05:55:46.856Z,54.71
2019-05-29T05:58:16.248Z,55.95
2019-05-29T06:00:46.615Z,55.88
2019-05-29T06:03:15.442Z,56.10
2019-05-29T06:05:48.058Z,56.40
2019-05-29T06:08:17.454Z,55.54
2019-05-29T06:10:50.615Z,56.16
2019-05-29T06:13:19.687Z,53.66
2019-05-29T06:15:48.941Z,52.90
2019-05-29T06:18:21.483Z,53.55
2019-05-29T06:20:51.740Z,50.82
2019-05-29T06:23:22.132Z,53.27
2019-05-29T06:25:52.541Z,53.97
2019-05-29T06:28:21.835Z,55.13
2019-05-29T06:30:52.513Z,54.06
2019-05-29T06:33:25.112Z,54.86
2019-05-29T06:35:57.506Z,54.93
2019-05-29T06:38:26.873Z,55.49
2019-05-29T06:40:58.540Z,54.85
2019-05-29T06:43:28.921Z,55.88
2019-05-29T06:45:58.440Z,55.89
2019-05-29T06:48:42.451Z,56.60
2019-05-29T06:51:05.366Z,56.67
2019-05-29T06:53:37.613Z,56.64
2019-05-29T06:56:07.292Z,57.49
2019-05-29T06:58:38.097Z,57.26
2019-05-29T07:01:08.558Z,57.55
2019-05-29T07:03:41.484Z,57.64
2019-05-29T07:06:11.297Z,58.89
2019-05-29T07:08:45.104Z,58.19
2019-05-29T07:11:12.802Z,56.94
2019-05-29T07:13:45.238Z,57.10
2019-05-29T07:16:15.833Z,56.02
2019-05-29T07:19:20.437Z,55.10
2019-05-29T07:21:17.553Z,55.28
2019-05-29T07:23:48.796Z,54.98
2019-05-29T07:26:17.483Z,53.72
2019-05-29T07:29:06.354Z,52.53
2019-05-29T07:31:20.851Z,51.09
2019-05-29T07:33:50.140Z,52.19
2019-05-29T07:36:20.608Z,52.11
2019-05-29T07:39:01.798Z,50.35
2019-05-29T07:41:22.471Z,49.42
2019-05-29T07:43:53.429Z,50.27
2019-05-29T07:46:22.753Z,51.63
2019-05-29T07:48:53.230Z,52.00
2019-05-29T07:51:23.667Z,47.10
2019-05-29T07:53:55.410Z,47.70
2019-05-29T07:56:26.149Z,47.62
2019-05-29T07:59:02.506Z,50.43
2019-05-29T08:01:31.039Z,52.32
2019-05-29T08:04:00.446Z,54.91
2019-05-29T08:06:31.362Z,58.21
2019-05-29T08:09:00.688Z,59.52
2019-05-29T08:11:33.668Z,59.47
2019-05-29T08:14:02.997Z,60.45
2019-05-29T08:16:33.481Z,60.07
2019-05-29T08:19:07.877Z,60.01
2019-05-29T08:21:35.018Z,59.22
2019-05-29T08:24:05.429Z,57.82
2019-05-29T08:26:36.434Z,56.84
2019-05-29T08:29:06.158Z,56.30
2019-05-29T08:31:35.584Z,57.30
2019-05-29T08:34:08.916Z,57.80
2019-05-29T08:36:39.320Z,58.15
2019-05-29T08:39:09.852Z,58.05
2019-05-29T08:41:39.084Z,60.29
2019-05-29T08:44:09.148Z,59.37
2019-05-29T08:46:39.693Z,59.81
2019-05-29T08:49:09.050Z,60.02
2019-05-29T08:51:39.362Z,58.87
2019-05-29T08:54:23.604Z,57.52
2019-05-29T08:56:42.266Z,57.47
2019-05-29T08:59:12.872Z,56.31
2019-05-29T09:01:42.852Z,56.04
2019-05-29T09:04:13.473Z,54.12
2019-05-29T09:06:44.702Z,51.77
2019-05-29T09:09:15.344Z,49.48
2019-05-29T09:11:47.381Z,50.69
2019-05-29T09:14:18.652Z,51.82
2019-05-29T09:16:50.766Z,54.40
2019-05-29T09:19:22.767Z,57.04
2019-05-29T09:21:54.777Z,57.42
2019-05-29T09:24:25.071Z,59.47
2019-05-29T09:26:54.428Z,59.96
2019-05-29T09:29:26.718Z,59.69
2019-05-29T09:31:57.768Z,60.06
2019-05-29T09:34:28.163Z,58.63
2019-05-29T09:36:57.527Z,54.67
2019-05-29T09:39:26.916Z,54.04
2019-05-29T09:41:59.592Z,54.22
2019-05-29T09:44:38.415Z,53.08
2019-05-29T09:47:00.116Z,53.99
2019-05-29T09:49:29.554Z,52.44
2019-05-29T09:51:58.049Z,51.21
2019-05-29T09:54:27.525Z,50.03
2019-05-29T09:56:58.271Z,49.44
2019-05-29T09:59:29.076Z,47.86
2019-05-29T10:02:02.159Z,46.72
2019-05-29T10:04:30.533Z,45.37
2019-05-29T10:06:59.985Z,43.92
2019-05-29T10:09:31.226Z,44.12
2019-05-29T10:12:04.945Z,46.43
2019-05-29T10:14:33.411Z,47.67
2019-05-29T10:17:11.083Z,48.93
2019-05-29T10:19:35.143Z,47.18
2019-05-29T10:22:05.704Z,47.33
2019-05-29T10:24:36.582Z,47.09
2019-05-29T10:27:06.837Z,47.42
2019-05-29T10:29:37.293Z,47.13
2019-05-29T10:32:06.125Z,45.40
2019-05-29T10:34:36.540Z,44.81
2019-05-29T10:37:06.045Z,44.35
2019-05-29T10:39:36.773Z,43.07
2019-05-29T10:42:08.057Z,43.65
2019-05-29T10:44:38.464Z,44.68
2019-05-29T10:47:07.773Z,44.18
2019-05-29T10:49:37.345Z,44.70
2019-05-29T10:52:15.647Z,43.33
2019-05-29T10:54:44.095Z,42.65
2019-05-29T10:57:14.882Z,42.00
2019-05-29T10:59:44.638Z,40.85
2019-05-29T11:02:14.064Z,40.35
2019-05-29T11:04:47.606Z,42.38
2019-05-29T11:07:14.623Z,41.10
2019-05-29T11:09:45.111Z,42.45
2019-05-29T11:12:16.932Z,45.17
2019-05-29T11:14:46.540Z,45.71
2019-05-29T11:17:16.920Z,43.37
2019-05-29T11:19:47.718Z,43.03
2019-05-29T11:22:26.371Z,42.91
2019-05-29T11:24:50.306Z,42.92
2019-05-29T11:27:19.682Z,42.34
2019-05-29T11:29:50.532Z,41.44
2019-05-29T11:32:20.089Z,40.64
2019-05-29T11:34:52.339Z,41.29
2019-05-29T11:37:21.795Z,42.32
2019-05-29T11:39:52.442Z,42.61
2019-05-29T11:42:27.176Z,45.26
2019-05-29T11:44:55.306Z,44.82
2019-05-29T11:47:25.706Z,44.11
2019-05-29T11:49:55.238Z,45.23
2019-05-29T11:52:26.566Z,45.71
2019-05-29T11:54:57.987Z,45.99
2019-05-29T11:57:31.203Z,47.83
2019-05-29T12:00:09.769Z,50.20
2019-05-29T12:02:33.599Z,50.62
2019-05-29T12:05:03.963Z,50.31
2019-05-29T12:07:34.423Z,50.49
2019-05-29T12:10:05.331Z,50.39
2019-05-29T12:12:35.987Z,49.44
2019-05-29T12:15:13.484Z,47.96
2019-05-29T12:17:38.701Z,47.64
2019-05-29T12:20:26.450Z,46.70
2019-05-29T12:23:07.298Z,47.13
2019-05-29T12:25:14.752Z,45.37
2019-05-29T12:27:46.237Z,42.45
2019-05-29T12:30:30.081Z,40.64
2019-05-29T12:33:01.165Z,40.27
2019-05-29T12:35:30.621Z,39.55
2019-05-29T12:38:03.527Z,39.08
2019-05-29T12:40:35.499Z,40.21
2019-05-29T12:43:05.962Z,40.65
2019-05-29T12:45:36.545Z,40.65
2019-05-29T12:48:12.896Z,42.47
2019-05-29T12:50:39.170Z,45.78
2019-05-29T12:53:09.785Z,47.84
2019-05-29T12:55:42.066Z,47.27
2019-05-29T12:58:11.464Z,47.81
2019-05-29T13:00:41.775Z,49.21
2019-05-29T13:03:11.451Z,49.71
2019-05-29T13:05:41.807Z,49.71
2019-05-29T13:08:12.229Z,48.56
2019-05-29T13:10:44.182Z,46.63
2019-05-29T13:13:13.672Z,43.92
2019-05-29T13:15:43.022Z,42.50
2019-05-29T13:18:12.529Z,42.88
2019-05-29T13:20:42.880Z,41.92
2019-05-29T13:23:13.892Z,43.71
2019-05-29T13:25:45.842Z,45.25
2019-05-29T13:28:16.302Z,46.84
2019-05-29T13:30:45.590Z,45.80
2019-05-29T13:33:16.998Z,44.10
2019-05-29T13:35:49.491Z,46.62
2019-05-29T13:38:19.959Z,48.23
2019-05-29T13:40:50.873Z,47.43
2019-05-29T13:43:20.298Z,46.68
2019-05-29T13:45:49.025Z,46.69
2019-05-29T13:48:18.395Z,45.02
2019-05-29T13:50:50.518Z,46.65
2019-05-29T13:53:20.876Z,45.20
2019-05-29T13:55:50.238Z,46.02
2019-05-29T13:58:21.114Z,46.78
2019-05-29T14:00:51.668Z,46.89
2019-05-29T14:03:21.983Z,46.89
2019-05-29T14:05:51.343Z,47.95
2019-05-29T14:08:22.266Z,48.68
2019-05-29T14:10:51.002Z,46.28
2019-05-29T14:13:20.519Z,45.85
2019-05-29T14:15:50.872Z,46.93
2019-05-29T14:18:20.248Z,47.67
2019-05-29T14:20:49.636Z,48.44
2019-05-29T14:23:19.990Z,48.38
2019-05-29T14:25:49.397Z,47.21
2019-05-29T14:28:19.042Z,48.24
2019-05-29T14:30:48.293Z,48.48
2019-05-29T14:33:19.889Z,49.59
2019-05-29T14:35:51.810Z,49.81
2019-05-29T14:38:21.177Z,49.35
2019-05-29T14:40:51.576Z,48.87
2019-05-29T14:43:22.086Z,48.73
2019-05-29T14:45:52.387Z,47.62
2019-05-29T14:48:24.882Z,48.07
2019-05-29T14:50:54.271Z,49.18
2019-05-29T14:53:23.541Z,49.87
2019-05-29T14:55:55.371Z,51.30
2019-05-29T14:58:27.661Z,52.56
2019-05-29T15:00:58.517Z,53.63
2019-05-29T15:03:27.850Z,54.11
2019-05-29T15:05:58.261Z,55.34
2019-05-29T15:08:28.543Z,55.51
2019-05-29T15:10:58.952Z,54.35
2019-05-29T15:13:30.095Z,53.31
2019-05-29T15:16:00.920Z,53.02
2019-05-29T15:18:33.101Z,53.23
2019-05-29T15:21:04.878Z,52.36
2019-05-29T15:23:36.825Z,53.85
2019-05-29T15:26:07.505Z,51.15
2019-05-29T15:28:38.056Z,50.55
2019-05-29T15:31:08.235Z,51.53
2019-05-29T15:33:40.654Z,50.29
2019-05-29T15:36:10.951Z,50.57
2019-05-29T15:38:40.199Z,50.76
2019-05-29T15:41:11.242Z,50.63
2019-05-29T15:43:41.965Z,50.32
2019-05-29T15:46:12.177Z,50.18
2019-05-29T15:48:43.657Z,51.41
2019-05-29T15:51:15.124Z,51.08
2019-05-29T15:53:44.475Z,51.87
2019-05-29T15:56:25.901Z,53.65
2019-05-29T15:58:48.818Z,51.88
2019-05-29T16:01:18.141Z,51.44
2019-05-29T16:03:48.538Z,51.21
2019-05-29T16:06:18.941Z,52.04
2019-05-29T16:08:51.131Z,51.24
2019-05-29T16:11:25.336Z,51.51
2019-05-29T16:13:52.598Z,51.67
2019-05-29T16:16:23.070Z,51.20
2019-05-29T16:18:53.584Z,51.36
2019-05-29T16:21:25.892Z,50.93
2019-05-29T16:24:00.240Z,51.25
2019-05-29T16:26:30.647Z,51.42
2019-05-29T16:29:00.969Z,50.68
2019-05-29T16:31:31.458Z,50.17
2019-05-29T16:34:03.011Z,50.49
2019-05-29T16:36:35.300Z,50.61
2019-05-29T16:39:08.003Z,50.84
2019-05-29T16:41:37.321Z,51.30
2019-05-29T16:44:07.986Z,51.65
2019-05-29T16:46:38.407Z,50.47
2019-05-29T16:49:12.432Z,49.85
2019-05-29T16:51:43.058Z,49.11
2019-05-29T16:54:14.625Z,49.00
2019-05-29T16:56:46.036Z,48.90
2019-05-29T16:59:17.622Z,50.06
2019-05-29T17:01:47.086Z,50.28
2019-05-29T17:04:17.662Z,50.31
2019-05-29T17:06:48.103Z,50.14
2019-05-29T17:09:18.312Z,49.71
2019-05-29T17:11:48.703Z,50.66
2019-05-29T17:14:20.834Z,50.93
2019-05-29T17:16:50.603Z,50.91
2019-05-29T17:19:25.182Z,50.88
2019-05-29T17:21:55.150Z,50.23
2019-05-29T17:24:27.523Z,50.74
2019-05-29T17:26:59.694Z,52.19
2019-05-29T17:29:29.837Z,53.11
2019-05-29T17:32:01.904Z,52.62
2019-05-29T17:34:33.039Z,52.27
2019-05-29T17:37:03.418Z,53.04
2019-05-29T17:39:32.814Z,53.21
2019-05-29T17:42:02.173Z,53.87
2019-05-29T17:44:31.603Z,53.92
2019-05-29T17:47:02.045Z,54.03
2019-05-29T17:49:34.860Z,54.03
2019-05-29T17:52:05.352Z,53.24
2019-05-29T17:54:34.791Z,53.17
2019-05-29T17:57:04.314Z,53.36
2019-05-29T17:59:33.773Z,53.23
2019-05-29T18:02:04.143Z,53.10
2019-05-29T18:04:34.743Z,52.76
2019-05-29T18:07:04.437Z,53.96
2019-05-29T18:09:35.142Z,53.22
2019-05-29T18:12:05.662Z,52.98
2019-05-29T18:14:34.694Z,53.18
2019-05-29T18:17:06.982Z,54.17
2019-05-29T18:19:39.066Z,53.69
2019-05-29T18:22:07.540Z,55.37
2019-05-29T18:24:38.244Z,54.44
2019-05-29T18:27:08.908Z,54.91
2019-05-29T18:29:38.319Z,54.49
2019-05-29T18:32:08.854Z,54.65
2019-05-29T18:34:39.314Z,55.15
2019-05-29T18:37:08.607Z,55.20
2019-05-29T18:39:39.379Z,56.08
2019-05-29T18:42:11.290Z,56.37
2019-05-29T18:44:43.545Z,56.58
2019-05-29T18:47:12.321Z,56.05
2019-05-29T18:49:42.628Z,55.94
2019-05-29T18:52:13.190Z,56.65
2019-05-29T18:54:43.582Z,57.31
2019-05-29T18:57:16.253Z,57.24
2019-05-29T18:59:46.797Z,56.82
2019-05-29T19:02:16.098Z,57.43
2019-05-29T19:04:48.759Z,57.72
2019-05-29T19:07:18.135Z,58.90
2019-05-29T19:09:48.807Z,58.24
2019-05-29T19:12:19.502Z,56.70
2019-05-29T19:14:51.569Z,57.00
2019-05-29T19:17:22.018Z,56.95
2019-05-29T19:19:52.453Z,56.90
2019-05-29T19:22:22.850Z,57.33
2019-05-29T19:24:52.472Z,57.86
2019-05-29T19:27:36.960Z,57.73
2019-05-29T19:29:54.320Z,58.19
2019-05-29T19:32:25.241Z,58.38
2019-05-29T19:34:55.503Z,58.77
2019-05-29T19:37:26.138Z,58.77
2019-05-29T19:39:58.028Z,59.23
2019-05-29T19:42:30.154Z,59.59
2019-05-29T19:44:59.851Z,60.14
2019-05-29T19:47:30.638Z,60.52
2019-05-29T19:49:59.649Z,60.54
2019-05-29T19:52:29.220Z,60.80
2019-05-29T19:55:00.146Z,61.15
2019-05-29T19:57:46.544Z,61.66
2019-05-29T20:00:03.218Z,62.18
2019-05-29T20:02:32.891Z,63.15
2019-05-29T20:05:04.173Z,63.01
2019-05-29T20:07:33.829Z,62.93
2019-05-29T20:10:06.197Z,63.33
2019-05-29T20:12:38.322Z,62.85
2019-05-29T20:15:08.853Z,62.35
2019-05-29T20:17:39.277Z,62.14
2019-05-29T20:20:10.418Z,62.33
2019-05-29T20:22:39.269Z,62.25
2019-05-29T20:25:13.860Z,62.49
2019-05-29T20:27:46.414Z,62.30
2019-05-29T20:30:19.468Z,62.46
2019-05-29T20:32:50.779Z,62.90
2019-05-29T20:35:23.834Z,63.60
2019-05-29T20:37:58.932Z,64.29
2019-05-29T20:40:30.992Z,65.08
2019-05-29T20:43:03.193Z,65.60
2019-05-29T20:45:36.103Z,65.53
2019-05-29T20:48:06.518Z,65.63
2019-05-29T20:50:39.051Z,66.02
2019-05-29T20:53:10.094Z,66.39
2019-05-29T20:55:42.219Z,66.75
2019-05-29T20:58:24.412Z,66.71
2019-05-29T21:00:50.234Z,66.72
2019-05-29T21:03:22.764Z,67.33
2019-05-29T21:05:53.348Z,67.87
2019-05-29T21:08:24.073Z,67.64
2019-05-29T21:10:56.353Z,67.42
2019-05-29T21:13:25.708Z,67.14
2019-05-29T21:15:55.115Z,67.66
2019-05-29T21:18:25.694Z,68.31
2019-05-29T21:20:55.062Z,68.79
2019-05-29T21:23:26.086Z,68.80
2019-05-29T21:25:58.268Z,68.26
2019-05-29T21:28:39.771Z,67.98
2019-05-29T21:31:00.646Z,67.58
2019-05-29T21:33:31.152Z,67.51
2019-05-29T21:36:04.346Z,66.96
2019-05-29T21:38:36.091Z,67.25
2019-05-29T21:41:06.750Z,67.15
2019-05-29T21:43:39.245Z,67.12
2019-05-29T21:46:09.737Z,67.12
2019-05-29T21:48:39.056Z,66.31
2019-05-29T21:51:12.243Z,66.51
2019-05-29T21:53:41.714Z,66.91
2019-05-29T21:56:11.214Z,66.41
2019-05-29T21:58:57.252Z,65.96
2019-05-29T22:01:12.086Z,65.80
2019-05-29T22:03:42.385Z,65.71
2019-05-29T22:06:12.795Z,65.80
2019-05-29T22:08:44.986Z,65.66
2019-05-29T22:11:16.678Z,65.72
2019-05-29T22:13:46.153Z,65.71
2019-05-29T22:16:16.826Z,65.50
2019-05-29T22:18:47.219Z,65.32
2019-05-29T22:21:17.789Z,65.89
2019-05-29T22:23:47.232Z,66.04
2019-05-29T22:26:17.516Z,66.73
2019-05-29T22:28:47.903Z,65.95
2019-05-29T22:31:19.876Z,66.15
2019-05-29T22:33:51.417Z,66.00
2019-05-29T22:36:21.940Z,65.85
2019-05-29T22:38:53.409Z,66.03
2019-05-29T22:41:24.375Z,66.32
2019-05-29T22:43:53.837Z,66.34
2019-05-29T22:46:24.291Z,66.37
2019-05-29T22:48:56.000Z,66.09
2019-05-29T22:51:27.297Z,66.21
2019-05-29T22:53:57.919Z,66.08
2019-05-29T22:56:28.427Z,65.86
2019-05-29T22:59:00.265Z,65.82
2019-05-29T23:01:29.764Z,65.38
2019-05-29T23:04:00.264Z,65.31
2019-05-29T23:06:32.967Z,65.43
2019-05-29T23:09:03.268Z,65.31
2019-05-29T23:11:32.774Z,65.22
2019-05-29T23:14:03.035Z,64.96
2019-05-29T23:16:33.649Z,65.23
2019-05-29T23:19:04.587Z,65.51
2019-05-29T23:21:33.979Z,65.39
2019-05-29T23:24:05.293Z,64.76
2019-05-29T23:26:34.790Z,65.06
2019-05-29T23:29:04.256Z,66.03
2019-05-29T23:31:33.587Z,66.89
2019-05-29T23:34:04.056Z,67.14
2019-05-29T23:36:34.768Z,67.42
2019-05-29T23:39:07.404Z,67.74
2019-05-29T23:41:39.479Z,68.29
2019-05-29T23:44:08.849Z,67.89
2019-05-29T23:46:39.247Z,67.99
2019-05-29T23:49:09.717Z,68.57
2019-05-29T23:51:40.077Z,68.58
2019-05-29T23:54:10.384Z,68.41
2019-05-29T23:56:40.764Z,68.75
2019-05-29T23:59:10.063Z,68.84
